sensor_id;sensor_type;location;lat;lon;timestamp;P1;durP1;ratioP1;P2;durP2;ratioP2
69358;SDS011;56520;49.066;8.660;2023-02-15T00:00:39;12.23;;;4.60;;
69358;SDS011;56520;49.066;8.660;2023-02-15T00:05:30;7.97;;;4.07;;
69358;SDS011;56520;49.066;8.660;2023-02-15T00:10:21;7.57;;;3.97;;
69358;SDS011;56520;49.066;8.660;2023-02-15T00:12:48;9.52;;;3.83;;
69358;SDS011;56520;49.066;8.660;2023-02-15T00:15:13;11.10;;;5.65;;
69358;SDS011;56520;49.066;8.660;2023-02-15T00:20:04;9.43;;;3.73;;
69358;SDS011;56520;49.066;8.660;2023-02-15T00:22:30;10.63;;;4.55;;
69358;SDS011;56520;49.066;8.660;2023-02-15T00:24:56;12.27;;;5.05;;
69358;SDS011;56520;49.066;8.660;2023-02-15T00:27:21;9.15;;;4.40;;
69358;SDS011;56520;49.066;8.660;2023-02-15T00:32:12;9.55;;;4.90;;
69358;SDS011;56520;49.066;8.660;2023-02-15T00:37:03;7.57;;;2.93;;
69358;SDS011;56520;49.066;8.660;2023-02-15T00:41:54;4.38;;;1.95;;
69358;SDS011;56520;49.066;8.660;2023-02-15T00:44:19;9.10;;;4.32;;
69358;SDS011;56520;49.066;8.660;2023-02-15T00:49:10;7.23;;;2.63;;
69358;SDS011;56520;49.066;8.660;2023-02-15T00:51:35;10.10;;;4.78;;
69358;SDS011;56520;49.066;8.660;2023-02-15T00:56:26;8.27;;;3.83;;
69358;SDS011;56520;49.066;8.660;2023-02-15T00:58:53;10.35;;;4.00;;
69358;SDS011;56520;49.066;8.660;2023-02-15T01:01:19;11.10;;;4.88;;
69358;SDS011;56520;49.066;8.660;2023-02-15T01:03:45;8.23;;;4.07;;
69358;SDS011;56520;49.066;8.660;2023-02-15T01:06:14;9.85;;;3.85;;
69358;SDS011;56520;49.066;8.660;2023-02-15T01:08:41;11.20;;;5.07;;
69358;SDS011;56520;49.066;8.660;2023-02-15T01:13:33;8.60;;;3.88;;
69358;SDS011;56520;49.066;8.660;2023-02-15T01:15:59;7.97;;;3.15;;
69358;SDS011;56520;49.066;8.660;2023-02-15T01:18:25;13.18;;;4.18;;
69358;SDS011;56520;49.066;8.660;2023-02-15T01:20:51;7.47;;;3.70;;
69358;SDS011;56520;49.066;8.660;2023-02-15T01:25:43;8.68;;;3.55;;
69358;SDS011;56520;49.066;8.660;2023-02-15T01:30:33;8.57;;;4.57;;
69358;SDS011;56520;49.066;8.660;2023-02-15T01:32:59;7.53;;;3.70;;
69358;SDS011;56520;49.066;8.660;2023-02-15T01:35:28;10.57;;;4.20;;
69358;SDS011;56520;49.066;8.660;2023-02-15T01:37:54;12.20;;;4.22;;
69358;SDS011;56520;49.066;8.660;2023-02-15T01:40:20;10.23;;;4.55;;
69358;SDS011;56520;49.066;8.660;2023-02-15T01:42:49;9.20;;;3.67;;
69358;SDS011;56520;49.066;8.660;2023-02-15T01:47:59;9.88;;;4.45;;
69358;SDS011;56520;49.066;8.660;2023-02-15T01:50:39;7.78;;;3.25;;
69358;SDS011;56520;49.066;8.660;2023-02-15T01:53:16;9.60;;;3.92;;
69358;SDS011;56520;49.066;8.660;2023-02-15T01:55:56;10.00;;;4.03;;
69358;SDS011;56520;49.066;8.660;2023-02-15T01:58:26;7.65;;;3.25;;
69358;SDS011;56520;49.066;8.660;2023-02-15T02:00:54;11.07;;;4.40;;
69358;SDS011;56520;49.066;8.660;2023-02-15T02:03:25;8.10;;;3.60;;
69358;SDS011;56520;49.066;8.660;2023-02-15T02:06:01;9.85;;;4.22;;
69358;SDS011;56520;49.066;8.660;2023-02-15T02:10:52;7.38;;;3.30;;
69358;SDS011;56520;49.066;8.660;2023-02-15T02:15:46;9.17;;;3.93;;
69358;SDS011;56520;49.066;8.660;2023-02-15T02:18:22;9.52;;;3.50;;
69358;SDS011;56520;49.066;8.660;2023-02-15T02:21:21;8.88;;;3.72;;
69358;SDS011;56520;49.066;8.660;2023-02-15T02:35:49;6.25;;;2.70;;
69358;SDS011;56520;49.066;8.660;2023-02-15T02:38:50;8.55;;;4.13;;
69358;SDS011;56520;49.066;8.660;2023-02-15T02:49:28;8.07;;;3.88;;
69358;SDS011;56520;49.066;8.660;2023-02-15T02:52:01;9.93;;;4.93;;
69358;SDS011;56520;49.066;8.660;2023-02-15T02:54:28;8.27;;;4.00;;
69358;SDS011;56520;49.066;8.660;2023-02-15T02:56:54;8.27;;;3.72;;
69358;SDS011;56520;49.066;8.660;2023-02-15T02:59:29;8.82;;;3.75;;
69358;SDS011;56520;49.066;8.660;2023-02-15T03:02:05;10.40;;;3.25;;
69358;SDS011;56520;49.066;8.660;2023-02-15T03:04:58;8.57;;;3.78;;
69358;SDS011;56520;49.066;8.660;2023-02-15T03:07:28;8.10;;;3.13;;
69358;SDS011;56520;49.066;8.660;2023-02-15T03:09:56;7.93;;;2.65;;
69358;SDS011;56520;49.066;8.660;2023-02-15T03:12:28;8.45;;;3.33;;
69358;SDS011;56520;49.066;8.660;2023-02-15T03:17:31;9.75;;;3.50;;
69358;SDS011;56520;49.066;8.660;2023-02-15T03:20:00;7.97;;;3.58;;
69358;SDS011;56520;49.066;8.660;2023-02-15T03:23:18;9.48;;;3.67;;
69358;SDS011;56520;49.066;8.660;2023-02-15T03:27:53;7.93;;;3.22;;
69358;SDS011;56520;49.066;8.660;2023-02-15T03:30:23;8.73;;;3.60;;
69358;SDS011;56520;49.066;8.660;2023-02-15T03:32:50;8.32;;;3.60;;
69358;SDS011;56520;49.066;8.660;2023-02-15T03:35:19;8.05;;;3.40;;
69358;SDS011;56520;49.066;8.660;2023-02-15T03:37:48;8.95;;;4.07;;
69358;SDS011;56520;49.066;8.660;2023-02-15T03:40:32;10.05;;;4.05;;
69358;SDS011;56520;49.066;8.660;2023-02-15T03:48:40;8.45;;;3.15;;
69358;SDS011;56520;49.066;8.660;2023-02-15T03:51:10;7.10;;;3.00;;
69358;SDS011;56520;49.066;8.660;2023-02-15T03:53:59;10.10;;;3.25;;
69358;SDS011;56520;49.066;8.660;2023-02-15T03:56:30;10.32;;;4.05;;
69358;SDS011;56520;49.066;8.660;2023-02-15T03:58:57;8.07;;;3.10;;
69358;SDS011;56520;49.066;8.660;2023-02-15T04:01:52;9.82;;;3.67;;
69358;SDS011;56520;49.066;8.660;2023-02-15T04:04:26;7.90;;;3.30;;
69358;SDS011;56520;49.066;8.660;2023-02-15T04:06:56;9.05;;;3.90;;
69358;SDS011;56520;49.066;8.660;2023-02-15T04:12:06;7.53;;;3.42;;
69358;SDS011;56520;49.066;8.660;2023-02-15T04:17:15;6.03;;;2.95;;
69358;SDS011;56520;49.066;8.660;2023-02-15T04:19:41;8.05;;;3.28;;
69358;SDS011;56520;49.066;8.660;2023-02-15T04:22:25;6.47;;;3.13;;
69358;SDS011;56520;49.066;8.660;2023-02-15T04:25:09;7.68;;;2.72;;
69358;SDS011;56520;49.066;8.660;2023-02-15T04:27:35;9.02;;;3.67;;
69358;SDS011;56520;49.066;8.660;2023-02-15T04:32:26;5.03;;;2.30;;
69358;SDS011;56520;49.066;8.660;2023-02-15T04:37:18;6.05;;;2.78;;
69358;SDS011;56520;49.066;8.660;2023-02-15T04:42:08;8.43;;;3.50;;
69358;SDS011;56520;49.066;8.660;2023-02-15T04:46:59;5.93;;;2.67;;
69358;SDS011;56520;49.066;8.660;2023-02-15T04:51:49;6.43;;;2.47;;
69358;SDS011;56520;49.066;8.660;2023-02-15T04:56:40;4.67;;;2.50;;
69358;SDS011;56520;49.066;8.660;2023-02-15T04:59:09;6.25;;;2.75;;
69358;SDS011;56520;49.066;8.660;2023-02-15T05:01:35;10.38;;;3.45;;
69358;SDS011;56520;49.066;8.660;2023-02-15T05:04:00;8.00;;;3.13;;
69358;SDS011;56520;49.066;8.660;2023-02-15T05:06:25;8.50;;;3.38;;
69358;SDS011;56520;49.066;8.660;2023-02-15T05:08:51;8.00;;;2.78;;
69358;SDS011;56520;49.066;8.660;2023-02-15T05:11:16;7.50;;;3.47;;
69358;SDS011;56520;49.066;8.660;2023-02-15T05:13:42;7.10;;;2.33;;
69358;SDS011;56520;49.066;8.660;2023-02-15T05:16:07;8.32;;;3.70;;
69358;SDS011;56520;49.066;8.660;2023-02-15T05:18:33;9.38;;;3.75;;
69358;SDS011;56520;49.066;8.660;2023-02-15T05:20:58;7.50;;;3.30;;
69358;SDS011;56520;49.066;8.660;2023-02-15T05:23:24;8.90;;;4.45;;
69358;SDS011;56520;49.066;8.660;2023-02-15T05:25:49;5.80;;;2.60;;
69358;SDS011;56520;49.066;8.660;2023-02-15T05:28:34;8.30;;;3.65;;
69358;SDS011;56520;49.066;8.660;2023-02-15T05:33:33;8.50;;;3.65;;
69358;SDS011;56520;49.066;8.660;2023-02-15T05:35:59;8.98;;;3.67;;
69358;SDS011;56520;49.066;8.660;2023-02-15T05:38:25;9.18;;;3.83;;
69358;SDS011;56520;49.066;8.660;2023-02-15T05:40:51;5.68;;;2.75;;
69358;SDS011;56520;49.066;8.660;2023-02-15T05:45:49;5.30;;;2.90;;
69358;SDS011;56520;49.066;8.660;2023-02-15T05:48:16;7.70;;;3.30;;
69358;SDS011;56520;49.066;8.660;2023-02-15T05:50:42;10.82;;;4.47;;
69358;SDS011;56520;49.066;8.660;2023-02-15T05:53:08;9.27;;;3.80;;
69358;SDS011;56520;49.066;8.660;2023-02-15T05:57:58;5.43;;;2.50;;
69358;SDS011;56520;49.066;8.660;2023-02-15T06:02:50;4.93;;;2.28;;
69358;SDS011;56520;49.066;8.660;2023-02-15T06:07:44;3.95;;;1.92;;
69358;SDS011;56520;49.066;8.660;2023-02-15T06:10:10;8.15;;;3.15;;
69358;SDS011;56520;49.066;8.660;2023-02-15T06:12:36;8.40;;;2.80;;
69358;SDS011;56520;49.066;8.660;2023-02-15T06:15:01;7.07;;;3.70;;
69358;SDS011;56520;49.066;8.660;2023-02-15T06:17:27;8.20;;;3.03;;
69358;SDS011;56520;49.066;8.660;2023-02-15T06:22:18;6.47;;;2.63;;
69358;SDS011;56520;49.066;8.660;2023-02-15T06:24:45;7.65;;;2.88;;
69358;SDS011;56520;49.066;8.660;2023-02-15T06:27:10;6.72;;;3.45;;
69358;SDS011;56520;49.066;8.660;2023-02-15T06:29:36;11.10;;;5.15;;
69358;SDS011;56520;49.066;8.660;2023-02-15T06:32:01;9.35;;;3.38;;
69358;SDS011;56520;49.066;8.660;2023-02-15T06:34:27;8.07;;;3.80;;
69358;SDS011;56520;49.066;8.660;2023-02-15T06:36:52;9.70;;;4.35;;
69358;SDS011;56520;49.066;8.660;2023-02-15T06:39:18;7.57;;;3.60;;
69358;SDS011;56520;49.066;8.660;2023-02-15T06:41:43;7.20;;;3.10;;
69358;SDS011;56520;49.066;8.660;2023-02-15T06:46:34;7.15;;;3.13;;
69358;SDS011;56520;49.066;8.660;2023-02-15T06:48:59;7.97;;;3.28;;
69358;SDS011;56520;49.066;8.660;2023-02-15T06:51:25;6.95;;;3.50;;
69358;SDS011;56520;49.066;8.660;2023-02-15T06:53:50;7.75;;;3.63;;
69358;SDS011;56520;49.066;8.660;2023-02-15T06:56:15;7.28;;;3.10;;
69358;SDS011;56520;49.066;8.660;2023-02-15T06:58:41;9.38;;;4.00;;
69358;SDS011;56520;49.066;8.660;2023-02-15T07:03:33;7.47;;;3.15;;
69358;SDS011;56520;49.066;8.660;2023-02-15T07:08:25;6.15;;;3.00;;
69358;SDS011;56520;49.066;8.660;2023-02-15T07:10:52;7.68;;;3.15;;
69358;SDS011;56520;49.066;8.660;2023-02-15T07:13:18;7.72;;;3.53;;
69358;SDS011;56520;49.066;8.660;2023-02-15T07:15:45;8.95;;;3.42;;
69358;SDS011;56520;49.066;8.660;2023-02-15T07:18:11;10.10;;;3.50;;
69358;SDS011;56520;49.066;8.660;2023-02-15T07:20:37;8.88;;;3.65;;
69358;SDS011;56520;49.066;8.660;2023-02-15T07:23:03;9.10;;;3.35;;
69358;SDS011;56520;49.066;8.660;2023-02-15T07:25:29;6.78;;;3.38;;
69358;SDS011;56520;49.066;8.660;2023-02-15T07:27:58;7.57;;;4.10;;
69358;SDS011;56520;49.066;8.660;2023-02-15T07:30:25;7.70;;;2.78;;
69358;SDS011;56520;49.066;8.660;2023-02-15T07:32:55;5.80;;;2.55;;
69358;SDS011;56520;49.066;8.660;2023-02-15T07:35:49;5.95;;;2.75;;
69358;SDS011;56520;49.066;8.660;2023-02-15T07:38:15;5.18;;;2.10;;
69358;SDS011;56520;49.066;8.660;2023-02-15T07:40:41;7.43;;;3.03;;
69358;SDS011;56520;49.066;8.660;2023-02-15T07:43:07;7.40;;;3.25;;
69358;SDS011;56520;49.066;8.660;2023-02-15T07:45:32;18.73;;;3.17;;
69358;SDS011;56520;49.066;8.660;2023-02-15T07:47:59;5.07;;;2.50;;
69358;SDS011;56520;49.066;8.660;2023-02-15T07:50:25;10.07;;;3.33;;
69358;SDS011;56520;49.066;8.660;2023-02-15T07:52:51;8.23;;;3.00;;
69358;SDS011;56520;49.066;8.660;2023-02-15T07:55:16;6.47;;;2.85;;
69358;SDS011;56520;49.066;8.660;2023-02-15T07:57:42;5.90;;;2.80;;
69358;SDS011;56520;49.066;8.660;2023-02-15T08:00:09;7.25;;;3.05;;
69358;SDS011;56520;49.066;8.660;2023-02-15T08:02:36;6.85;;;3.17;;
69358;SDS011;56520;49.066;8.660;2023-02-15T08:05:02;11.30;;;4.97;;
69358;SDS011;56520;49.066;8.660;2023-02-15T08:07:28;9.43;;;3.65;;
69358;SDS011;56520;49.066;8.660;2023-02-15T08:12:18;7.53;;;3.42;;
69358;SDS011;56520;49.066;8.660;2023-02-15T08:14:44;5.20;;;2.47;;
69358;SDS011;56520;49.066;8.660;2023-02-15T08:17:10;6.53;;;3.47;;
69358;SDS011;56520;49.066;8.660;2023-02-15T08:19:36;7.88;;;2.85;;
69358;SDS011;56520;49.066;8.660;2023-02-15T08:24:30;6.40;;;3.25;;
69358;SDS011;56520;49.066;8.660;2023-02-15T08:29:28;7.80;;;3.38;;
69358;SDS011;56520;49.066;8.660;2023-02-15T08:31:57;7.70;;;3.63;;
69358;SDS011;56520;49.066;8.660;2023-02-15T08:34:28;9.05;;;3.20;;
69358;SDS011;56520;49.066;8.660;2023-02-15T08:36:55;8.10;;;4.53;;
69358;SDS011;56520;49.066;8.660;2023-02-15T08:39:21;8.10;;;2.97;;
69358;SDS011;56520;49.066;8.660;2023-02-15T08:41:47;6.35;;;3.40;;
69358;SDS011;56520;49.066;8.660;2023-02-15T08:46:43;5.72;;;2.80;;
69358;SDS011;56520;49.066;8.660;2023-02-15T08:49:11;9.30;;;3.75;;
69358;SDS011;56520;49.066;8.660;2023-02-15T08:51:39;7.38;;;3.58;;
69358;SDS011;56520;49.066;8.660;2023-02-15T08:54:06;9.10;;;3.33;;
69358;SDS011;56520;49.066;8.660;2023-02-15T08:56:37;8.27;;;3.65;;
69358;SDS011;56520;49.066;8.660;2023-02-15T08:59:05;8.23;;;3.70;;
69358;SDS011;56520;49.066;8.660;2023-02-15T09:01:31;10.57;;;3.80;;
69358;SDS011;56520;49.066;8.660;2023-02-15T09:03:58;10.23;;;4.50;;
69358;SDS011;56520;49.066;8.660;2023-02-15T09:06:26;10.65;;;4.05;;
69358;SDS011;56520;49.066;8.660;2023-02-15T09:08:52;7.22;;;3.00;;
69358;SDS011;56520;49.066;8.660;2023-02-15T09:11:19;8.15;;;3.53;;
69358;SDS011;56520;49.066;8.660;2023-02-15T09:16:18;7.47;;;3.03;;
69358;SDS011;56520;49.066;8.660;2023-02-15T09:18:44;9.00;;;3.88;;
69358;SDS011;56520;49.066;8.660;2023-02-15T09:23:39;6.63;;;2.92;;
69358;SDS011;56520;49.066;8.660;2023-02-15T09:26:06;6.13;;;3.08;;
69358;SDS011;56520;49.066;8.660;2023-02-15T09:28:33;7.82;;;3.53;;
69358;SDS011;56520;49.066;8.660;2023-02-15T09:31:15;6.88;;;3.03;;
69358;SDS011;56520;49.066;8.660;2023-02-15T09:33:42;11.60;;;3.42;;
69358;SDS011;56520;49.066;8.660;2023-02-15T09:38:46;6.80;;;2.38;;
69358;SDS011;56520;49.066;8.660;2023-02-15T09:43:50;7.20;;;3.85;;
69358;SDS011;56520;49.066;8.660;2023-02-15T09:49:26;8.02;;;3.22;;
69358;SDS011;56520;49.066;8.660;2023-02-15T10:00:54;6.50;;;2.90;;
69358;SDS011;56520;49.066;8.660;2023-02-15T10:06:47;11.48;;;3.50;;
69358;SDS011;56520;49.066;8.660;2023-02-15T10:20:11;8.40;;;3.67;;
69358;SDS011;56520;49.066;8.660;2023-02-15T10:31:22;8.88;;;3.50;;
69358;SDS011;56520;49.066;8.660;2023-02-15T10:33:52;10.38;;;3.67;;
69358;SDS011;56520;49.066;8.660;2023-02-15T10:44:55;6.45;;;2.92;;
69358;SDS011;56520;49.066;8.660;2023-02-15T10:53:41;8.55;;;3.50;;
69358;SDS011;56520;49.066;8.660;2023-02-15T10:56:19;9.88;;;4.00;;
69358;SDS011;56520;49.066;8.660;2023-02-15T11:09:51;8.05;;;3.60;;
69358;SDS011;56520;49.066;8.660;2023-02-15T11:12:24;8.25;;;3.85;;
69358;SDS011;56520;49.066;8.660;2023-02-15T11:14:58;8.70;;;3.50;;
69358;SDS011;56520;49.066;8.660;2023-02-15T11:17:36;7.40;;;3.40;;
69358;SDS011;56520;49.066;8.660;2023-02-15T11:20:26;7.65;;;3.75;;
69358;SDS011;56520;49.066;8.660;2023-02-15T11:22:57;14.75;;;3.80;;
69358;SDS011;56520;49.066;8.660;2023-02-15T11:25:25;10.32;;;4.53;;
69358;SDS011;56520;49.066;8.660;2023-02-15T11:27:55;7.50;;;3.83;;
69358;SDS011;56520;49.066;8.660;2023-02-15T11:32:48;8.68;;;3.92;;
69358;SDS011;56520;49.066;8.660;2023-02-15T11:38:21;9.45;;;4.20;;
69358;SDS011;56520;49.066;8.660;2023-02-15T11:40:48;9.15;;;4.63;;
69358;SDS011;56520;49.066;8.660;2023-02-15T11:43:18;8.88;;;3.88;;
69358;SDS011;56520;49.066;8.660;2023-02-15T11:45:51;9.05;;;3.90;;
69358;SDS011;56520;49.066;8.660;2023-02-15T11:50:42;7.65;;;4.00;;
69358;SDS011;56520;49.066;8.660;2023-02-15T11:53:13;9.63;;;4.32;;
69358;SDS011;56520;49.066;8.660;2023-02-15T11:55:42;9.27;;;4.45;;
69358;SDS011;56520;49.066;8.660;2023-02-15T11:58:23;10.18;;;4.65;;
69358;SDS011;56520;49.066;8.660;2023-02-15T12:06:29;8.88;;;3.65;;
69358;SDS011;56520;49.066;8.660;2023-02-15T12:09:17;7.85;;;3.30;;
69358;SDS011;56520;49.066;8.660;2023-02-15T12:11:51;12.02;;;4.65;;
69358;SDS011;56520;49.066;8.660;2023-02-15T12:16:43;7.23;;;3.57;;
69358;SDS011;56520;49.066;8.660;2023-02-15T12:19:28;7.70;;;4.13;;
69358;SDS011;56520;49.066;8.660;2023-02-15T12:22:02;7.60;;;3.40;;
69358;SDS011;56520;49.066;8.660;2023-02-15T12:24:30;7.43;;;3.70;;
69358;SDS011;56520;49.066;8.660;2023-02-15T12:29:41;9.57;;;4.80;;
69358;SDS011;56520;49.066;8.660;2023-02-15T12:32:11;10.98;;;4.93;;
69358;SDS011;56520;49.066;8.660;2023-02-15T12:34:47;10.40;;;4.55;;
69358;SDS011;56520;49.066;8.660;2023-02-15T12:37:25;10.98;;;4.53;;
69358;SDS011;56520;49.066;8.660;2023-02-15T12:42:20;8.75;;;4.45;;
69358;SDS011;56520;49.066;8.660;2023-02-15T12:47:26;9.80;;;4.18;;
69358;SDS011;56520;49.066;8.660;2023-02-15T12:50:10;13.60;;;5.30;;
69358;SDS011;56520;49.066;8.660;2023-02-15T12:52:47;10.23;;;4.80;;
69358;SDS011;56520;49.066;8.660;2023-02-15T12:55:19;10.10;;;4.85;;
69358;SDS011;56520;49.066;8.660;2023-02-15T12:57:48;8.90;;;3.97;;
69358;SDS011;56520;49.066;8.660;2023-02-15T13:02:47;14.57;;;5.18;;
69358;SDS011;56520;49.066;8.660;2023-02-15T13:05:25;10.80;;;4.30;;
69358;SDS011;56520;49.066;8.660;2023-02-15T13:07:56;11.40;;;5.25;;
69358;SDS011;56520;49.066;8.660;2023-02-15T13:10:36;11.02;;;5.30;;
69358;SDS011;56520;49.066;8.660;2023-02-15T13:13:18;12.75;;;5.68;;
69358;SDS011;56520;49.066;8.660;2023-02-15T13:15:53;10.95;;;5.25;;
69358;SDS011;56520;49.066;8.660;2023-02-15T13:20:51;8.52;;;4.43;;
69358;SDS011;56520;49.066;8.660;2023-02-15T13:23:27;12.32;;;5.75;;
69358;SDS011;56520;49.066;8.660;2023-02-15T13:25:54;11.32;;;5.93;;
69358;SDS011;56520;49.066;8.660;2023-02-15T13:28:24;9.70;;;4.97;;
69358;SDS011;56520;49.066;8.660;2023-02-15T13:30:58;10.38;;;5.15;;
69358;SDS011;56520;49.066;8.660;2023-02-15T13:41:24;12.27;;;6.15;;
69358;SDS011;56520;49.066;8.660;2023-02-15T13:44:12;9.23;;;4.30;;
69358;SDS011;56520;49.066;8.660;2023-02-15T13:52:33;7.88;;;4.43;;
69358;SDS011;56520;49.066;8.660;2023-02-15T13:55:33;12.30;;;5.50;;
69358;SDS011;56520;49.066;8.660;2023-02-15T13:58:13;9.95;;;4.93;;
69358;SDS011;56520;49.066;8.660;2023-02-15T14:03:40;13.68;;;5.43;;
69358;SDS011;56520;49.066;8.660;2023-02-15T14:09:23;9.05;;;4.38;;
69358;SDS011;56520;49.066;8.660;2023-02-15T14:14:59;9.73;;;4.85;;
69358;SDS011;56520;49.066;8.660;2023-02-15T14:26:09;11.00;;;5.25;;
69358;SDS011;56520;49.066;8.660;2023-02-15T14:31:33;11.63;;;5.28;;
69358;SDS011;56520;49.066;8.660;2023-02-15T14:34:02;11.82;;;6.15;;
69358;SDS011;56520;49.066;8.660;2023-02-15T14:36:28;13.02;;;5.75;;
69358;SDS011;56520;49.066;8.660;2023-02-15T14:42:04;11.68;;;5.15;;
69358;SDS011;56520;49.066;8.660;2023-02-15T14:44:39;13.45;;;5.88;;
69358;SDS011;56520;49.066;8.660;2023-02-15T14:47:19;11.00;;;4.88;;
69358;SDS011;56520;49.066;8.660;2023-02-15T14:49:50;12.05;;;5.20;;
69358;SDS011;56520;49.066;8.660;2023-02-15T14:52:15;11.77;;;5.35;;
69358;SDS011;56520;49.066;8.660;2023-02-15T15:02:07;11.00;;;5.40;;
69358;SDS011;56520;49.066;8.660;2023-02-15T15:04:43;11.82;;;6.35;;
69358;SDS011;56520;49.066;8.660;2023-02-15T15:07:19;10.38;;;4.93;;
69358;SDS011;56520;49.066;8.660;2023-02-15T15:12:43;12.18;;;5.65;;
69358;SDS011;56520;49.066;8.660;2023-02-15T15:15:13;12.63;;;6.18;;
69358;SDS011;56520;49.066;8.660;2023-02-15T15:18:00;14.20;;;5.60;;
69358;SDS011;56520;49.066;8.660;2023-02-15T15:20:39;12.45;;;5.07;;
69358;SDS011;56520;49.066;8.660;2023-02-15T15:25:40;11.05;;;5.88;;
69358;SDS011;56520;49.066;8.660;2023-02-15T15:30:58;12.68;;;5.45;;
69358;SDS011;56520;49.066;8.660;2023-02-15T15:41:54;11.40;;;5.88;;
69358;SDS011;56520;49.066;8.660;2023-02-15T15:49:49;12.18;;;5.53;;
69358;SDS011;56520;49.066;8.660;2023-02-15T15:52:26;12.50;;;5.97;;
69358;SDS011;56520;49.066;8.660;2023-02-15T15:54:57;10.02;;;5.32;;
69358;SDS011;56520;49.066;8.660;2023-02-15T15:57:39;15.02;;;6.63;;
69358;SDS011;56520;49.066;8.660;2023-02-15T16:02:52;13.10;;;6.18;;
69358;SDS011;56520;49.066;8.660;2023-02-15T16:05:18;12.38;;;6.50;;
69358;SDS011;56520;49.066;8.660;2023-02-15T16:07:44;10.85;;;5.70;;
69358;SDS011;56520;49.066;8.660;2023-02-15T16:10:20;11.23;;;5.35;;
69358;SDS011;56520;49.066;8.660;2023-02-15T16:12:48;12.90;;;5.57;;
69358;SDS011;56520;49.066;8.660;2023-02-15T16:15:16;14.55;;;5.30;;
69358;SDS011;56520;49.066;8.660;2023-02-15T16:17:44;12.68;;;6.95;;
69358;SDS011;56520;49.066;8.660;2023-02-15T16:20:20;11.48;;;5.93;;
69358;SDS011;56520;49.066;8.660;2023-02-15T16:22:49;10.90;;;5.05;;
69358;SDS011;56520;49.066;8.660;2023-02-15T16:28:39;11.57;;;5.85;;
69358;SDS011;56520;49.066;8.660;2023-02-15T16:33:37;11.93;;;5.33;;
69358;SDS011;56520;49.066;8.660;2023-02-15T16:36:04;11.27;;;5.47;;
69358;SDS011;56520;49.066;8.660;2023-02-15T16:41:07;9.80;;;4.85;;
69358;SDS011;56520;49.066;8.660;2023-02-15T16:43:38;8.73;;;4.28;;
69358;SDS011;56520;49.066;8.660;2023-02-15T16:46:12;10.68;;;4.38;;
69358;SDS011;56520;49.066;8.660;2023-02-15T16:49:15;9.18;;;3.83;;
69358;SDS011;56520;49.066;8.660;2023-02-15T16:51:41;8.98;;;3.67;;
69358;SDS011;56520;49.066;8.660;2023-02-15T16:54:14;8.45;;;3.53;;
69358;SDS011;56520;49.066;8.660;2023-02-15T16:56:42;8.55;;;3.10;;
69358;SDS011;56520;49.066;8.660;2023-02-15T16:59:15;9.73;;;3.30;;
69358;SDS011;56520;49.066;8.660;2023-02-15T17:02:12;7.88;;;3.33;;
69358;SDS011;56520;49.066;8.660;2023-02-15T17:04:41;7.88;;;3.88;;
69358;SDS011;56520;49.066;8.660;2023-02-15T17:09:50;9.93;;;4.35;;
69358;SDS011;56520;49.066;8.660;2023-02-15T17:20:46;8.30;;;4.30;;
69358;SDS011;56520;49.066;8.660;2023-02-15T17:23:28;6.70;;;2.85;;
69358;SDS011;56520;49.066;8.660;2023-02-15T17:25:57;8.45;;;3.67;;
69358;SDS011;56520;49.066;8.660;2023-02-15T17:28:26;8.57;;;3.72;;
69358;SDS011;56520;49.066;8.660;2023-02-15T17:30:55;8.43;;;2.83;;
69358;SDS011;56520;49.066;8.660;2023-02-15T17:38:42;10.48;;;4.07;;
69358;SDS011;56520;49.066;8.660;2023-02-15T17:41:32;10.27;;;5.05;;
69358;SDS011;56520;49.066;8.660;2023-02-15T17:43:59;11.20;;;5.22;;
69358;SDS011;56520;49.066;8.660;2023-02-15T17:46:26;9.32;;;4.65;;
69358;SDS011;56520;49.066;8.660;2023-02-15T17:48:58;10.52;;;5.03;;
69358;SDS011;56520;49.066;8.660;2023-02-15T17:53:49;9.35;;;4.40;;
69358;SDS011;56520;49.066;8.660;2023-02-15T17:56:34;8.73;;;4.53;;
69358;SDS011;56520;49.066;8.660;2023-02-15T17:59:01;10.90;;;4.78;;
69358;SDS011;56520;49.066;8.660;2023-02-15T18:01:31;21.10;;;10.77;;
69358;SDS011;56520;49.066;8.660;2023-02-15T18:04:16;17.50;;;7.20;;
69358;SDS011;56520;49.066;8.660;2023-02-15T18:07:00;15.90;;;7.35;;
69358;SDS011;56520;49.066;8.660;2023-02-15T18:09:44;15.75;;;6.47;;
69358;SDS011;56520;49.066;8.660;2023-02-15T18:12:33;13.90;;;5.75;;
69358;SDS011;56520;49.066;8.660;2023-02-15T18:15:01;16.00;;;6.47;;
69358;SDS011;56520;49.066;8.660;2023-02-15T18:19:56;10.85;;;4.40;;
69358;SDS011;56520;49.066;8.660;2023-02-15T18:22:22;9.93;;;4.28;;
69358;SDS011;56520;49.066;8.660;2023-02-15T18:27:14;12.55;;;5.10;;
69358;SDS011;56520;49.066;8.660;2023-02-15T18:29:41;13.43;;;5.20;;
69358;SDS011;56520;49.066;8.660;2023-02-15T18:34:34;9.07;;;3.88;;
69358;SDS011;56520;49.066;8.660;2023-02-15T18:37:02;13.35;;;5.50;;
69358;SDS011;56520;49.066;8.660;2023-02-15T18:42:02;10.57;;;5.43;;
69358;SDS011;56520;49.066;8.660;2023-02-15T18:44:28;13.30;;;5.60;;
69358;SDS011;56520;49.066;8.660;2023-02-15T18:46:54;13.15;;;6.05;;
69358;SDS011;56520;49.066;8.660;2023-02-15T18:51:45;8.20;;;4.07;;
69358;SDS011;56520;49.066;8.660;2023-02-15T18:54:20;9.93;;;4.88;;
69358;SDS011;56520;49.066;8.660;2023-02-15T18:56:50;7.53;;;3.33;;
69358;SDS011;56520;49.066;8.660;2023-02-15T18:59:20;9.43;;;3.88;;
69358;SDS011;56520;49.066;8.660;2023-02-15T19:01:46;7.85;;;3.47;;
69358;SDS011;56520;49.066;8.660;2023-02-15T19:04:11;7.93;;;3.90;;
69358;SDS011;56520;49.066;8.660;2023-02-15T19:06:40;8.57;;;3.35;;
69358;SDS011;56520;49.066;8.660;2023-02-15T19:09:11;9.57;;;3.70;;
69358;SDS011;56520;49.066;8.660;2023-02-15T19:11:40;10.20;;;4.68;;
69358;SDS011;56520;49.066;8.660;2023-02-15T19:14:08;9.77;;;4.30;;
69358;SDS011;56520;49.066;8.660;2023-02-15T19:16:46;9.50;;;3.78;;
69358;SDS011;56520;49.066;8.660;2023-02-15T19:19:12;10.18;;;4.43;;
69358;SDS011;56520;49.066;8.660;2023-02-15T19:24:04;8.45;;;3.85;;
69358;SDS011;56520;49.066;8.660;2023-02-15T19:26:32;8.27;;;3.80;;
69358;SDS011;56520;49.066;8.660;2023-02-15T19:29:02;9.23;;;4.00;;
69358;SDS011;56520;49.066;8.660;2023-02-15T19:31:28;8.60;;;4.03;;
69358;SDS011;56520;49.066;8.660;2023-02-15T19:36:18;5.80;;;2.87;;
69358;SDS011;56520;49.066;8.660;2023-02-15T19:38:47;6.18;;;3.17;;
69358;SDS011;56520;49.066;8.660;2023-02-15T19:41:17;11.52;;;4.45;;
69358;SDS011;56520;49.066;8.660;2023-02-15T19:43:49;8.35;;;3.88;;
69358;SDS011;56520;49.066;8.660;2023-02-15T19:46:19;9.45;;;4.53;;
69358;SDS011;56520;49.066;8.660;2023-02-15T19:48:45;7.40;;;3.53;;
69358;SDS011;56520;49.066;8.660;2023-02-15T19:51:12;10.73;;;4.35;;
69358;SDS011;56520;49.066;8.660;2023-02-15T19:53:38;8.55;;;3.65;;
69358;SDS011;56520;49.066;8.660;2023-02-15T19:56:06;11.45;;;4.68;;
69358;SDS011;56520;49.066;8.660;2023-02-15T19:58:35;7.82;;;3.38;;
69358;SDS011;56520;49.066;8.660;2023-02-15T20:01:00;9.02;;;3.78;;
69358;SDS011;56520;49.066;8.660;2023-02-15T20:03:26;9.55;;;3.97;;
69358;SDS011;56520;49.066;8.660;2023-02-15T20:05:52;11.27;;;4.22;;
69358;SDS011;56520;49.066;8.660;2023-02-15T20:10:44;6.90;;;3.50;;
69358;SDS011;56520;49.066;8.660;2023-02-15T20:13:12;8.68;;;3.58;;
69358;SDS011;56520;49.066;8.660;2023-02-15T20:15:39;7.65;;;3.45;;
69358;SDS011;56520;49.066;8.660;2023-02-15T20:18:05;10.15;;;3.65;;
69358;SDS011;56520;49.066;8.660;2023-02-15T20:20:49;9.10;;;5.40;;
69358;SDS011;56520;49.066;8.660;2023-02-15T20:25:52;9.63;;;4.15;;
69358;SDS011;56520;49.066;8.660;2023-02-15T20:28:22;9.15;;;4.15;;
69358;SDS011;56520;49.066;8.660;2023-02-15T20:30:49;10.70;;;4.32;;
69358;SDS011;56520;49.066;8.660;2023-02-15T20:33:15;10.63;;;3.50;;
69358;SDS011;56520;49.066;8.660;2023-02-15T20:35:41;8.88;;;4.00;;